Overview Statistics Trail Chart Weather Telemetry Raw packets
 

This is the latest recevied weather packets stored in our database for station/object OH2NJR. If no packets are shown the sender has not sent any weather packets the latest 10 day(s).

<< 1 2 3 4 5 6 >>
Time Temp. Humidity Pressure Rain* Wind** Luminosity Snow
1788531923 14.44° C 83% 998 hPa 0.76 mm - - -
1788530928 13.89° C 86% 998.2 hPa 0.76 mm - - -
1788529848 14.44° C 82% 998.2 hPa 0.76 mm - - -
1788528858 15° C 79% 998.3 hPa 0.25 mm - - -
1788527808 15.56° C 72% 998.3 hPa 0 mm - - -
1788526629 16.67° C 66% 998.1 hPa 0 mm - - -
1788526627 16.67° C 66% 998.1 hPa 0 mm - - -
1788525511 16.11° C 69% 998.2 hPa 0 mm - - -
1788524378 15.56° C 70% 998.2 hPa 0 mm - - -
1788523388 16.11° C 69% 998.2 hPa 0 mm - - -
1788522243 16.11° C 69% 998.2 hPa 0 mm - - -
1788521178 16.11° C 70% 998.3 hPa 0 mm - - -
1788520108 17.22° C 65% 998.3 hPa 0 mm - - -
1788518964 16.67° C - - 0 mm - - -
1788518958 16.67° C 68% 998.4 hPa 0 mm - - -
1788518001 17.78° C 62% 998.6 hPa 0 mm - - -
1788516963 17.78° C 62% 998.5 hPa 0 mm - - -
1788515773 17.22° C 64% 998.7 hPa 0 mm - - -
1788514738 17.78° C 62% 998.7 hPa 0 mm - - -
1788513683 17.78° C 60% 998.9 hPa 0 mm - - -
1788512508 17.78° C 60% 998.8 hPa 0 mm - - -
1788511466 15° C - - 0 mm - - -
1788511463 15° C 75% 999 hPa 0 mm - - -
1788510358 15° C 75% 999.1 hPa 0 mm - - -
1788509283 15° C 76% 999.2 hPa 0 mm - - -

* Rain latest hour (hover to see other rain measurements)
** Current wind speed in m/s (hover to see current wind gust speed)